createdAt,value
2023-04-10T00:00:41.617Z,13.43
2023-04-10T00:03:27.702Z,12.70
2023-04-10T00:06:12.941Z,12.05
2023-04-10T00:08:58.887Z,12.13
2023-04-10T00:11:44.250Z,13.43
2023-04-10T00:14:29.491Z,14.05
2023-04-10T00:17:14.873Z,13.60
2023-04-10T00:20:00.552Z,13.18
2023-04-10T00:22:45.548Z,12.48
2023-04-10T00:25:30.875Z,12.63
2023-04-10T00:28:17.304Z,13.73
2023-04-10T00:31:02.402Z,13.15
2023-04-10T00:33:47.788Z,12.23
2023-04-10T00:36:33.405Z,10.73
2023-04-10T00:39:19.034Z,12.57
2023-04-10T00:42:06.568Z,10.88
2023-04-10T00:44:51.688Z,13.38
2023-04-10T00:47:38.150Z,13.02
2023-04-10T00:50:23.520Z,13.93
2023-04-10T00:53:08.996Z,13.98
2023-04-10T00:55:55.272Z,14.32
2023-04-10T00:58:40.331Z,13.60
2023-04-10T01:01:25.814Z,14.18
2023-04-10T01:04:11.727Z,12.73
2023-04-10T01:07:15.210Z,13.02
2023-04-10T01:10:07.036Z,13.52
2023-04-10T01:13:08.793Z,11.60
2023-04-10T01:16:03.336Z,13.10
2023-04-10T01:19:01.428Z,13.98
2023-04-10T01:21:47.866Z,13.00
2023-04-10T01:25:00.440Z,12.90
2023-04-10T01:28:04.754Z,13.80
2023-04-10T01:30:58.080Z,12.00
2023-04-10T01:33:47.916Z,13.02
2023-04-10T01:36:38.033Z,13.60
2023-04-10T01:39:26.427Z,13.85
2023-04-10T01:42:15.031Z,11.82
2023-04-10T01:45:01.792Z,13.23
2023-04-10T01:47:48.302Z,13.00
2023-04-10T01:50:34.690Z,13.25
2023-04-10T01:53:20.723Z,12.73
2023-04-10T01:56:08.430Z,14.18
2023-04-10T01:58:53.859Z,13.15
2023-04-10T02:01:38.856Z,12.43
2023-04-10T02:04:26.549Z,12.25
2023-04-10T02:07:29.096Z,12.07
2023-04-10T02:10:24.760Z,12.23
2023-04-10T02:13:12.241Z,13.27
2023-04-10T02:16:04.044Z,13.02
2023-04-10T02:18:50.725Z,12.75
2023-04-10T02:21:36.682Z,12.90
2023-04-10T02:24:22.697Z,12.90
2023-04-10T02:27:07.952Z,13.07
2023-04-10T02:29:53.167Z,13.05
2023-04-10T02:32:38.693Z,12.05
2023-04-10T02:35:24.044Z,11.55
2023-04-10T02:38:09.366Z,12.30
2023-04-10T02:40:54.681Z,13.23
2023-04-10T02:43:40.471Z,12.23
2023-04-10T02:46:26.030Z,12.25
2023-04-10T02:49:11.117Z,12.35
2023-04-10T02:51:56.735Z,12.05
2023-04-10T02:54:41.801Z,14.63
2023-04-10T02:57:27.377Z,13.70
2023-04-10T03:00:13.175Z,13.15
2023-04-10T03:02:58.388Z,12.45
2023-04-10T03:05:43.906Z,14.60
2023-04-10T03:08:30.432Z,14.07
2023-04-10T03:11:15.508Z,13.30
2023-04-10T03:14:01.133Z,14.18
2023-04-10T03:16:47.848Z,12.50
2023-04-10T03:19:32.909Z,13.73
2023-04-10T03:22:18.258Z,13.32
2023-04-10T03:25:03.550Z,12.48
2023-04-10T03:27:48.986Z,15.15
2023-04-10T03:30:37.036Z,15.02
2023-04-10T03:33:22.401Z,14.32
2023-04-10T03:36:08.612Z,12.90
2023-04-10T03:38:54.069Z,11.63
2023-04-10T03:41:39.285Z,12.57
2023-04-10T03:44:24.594Z,14.18
2023-04-10T03:47:10.030Z,11.77
2023-04-10T03:49:55.050Z,13.32
2023-04-10T03:52:40.471Z,15.40
2023-04-10T03:55:25.955Z,15.63
2023-04-10T03:58:12.296Z,17.67
2023-04-10T04:00:57.790Z,18.45
2023-04-10T04:03:43.462Z,17.48
2023-04-10T04:06:29.043Z,19.80
2023-04-10T04:09:14.459Z,18.88
2023-04-10T04:11:59.444Z,19.80
2023-04-10T04:14:45.300Z,19.27
2023-04-10T04:17:30.831Z,20.25
2023-04-10T04:20:16.148Z,19.83
2023-04-10T04:23:01.511Z,19.20
2023-04-10T04:25:46.912Z,17.63
2023-04-10T04:28:32.077Z,18.20
2023-04-10T04:31:17.418Z,16.65
2023-04-10T04:34:02.698Z,16.27
2023-04-10T04:36:47.940Z,16.55
2023-04-10T04:39:33.315Z,14.88
2023-04-10T04:42:18.728Z,16.38
2023-04-10T04:45:04.267Z,14.93
2023-04-10T04:47:49.371Z,16.17
2023-04-10T04:50:35.292Z,16.70
2023-04-10T04:53:20.539Z,16.80
2023-04-10T04:56:06.370Z,15.60
2023-04-10T04:58:51.635Z,16.25
2023-04-10T05:01:37.233Z,15.50
2023-04-10T05:04:22.581Z,17.17
2023-04-10T05:07:07.717Z,16.55
2023-04-10T05:09:53.231Z,16.65
2023-04-10T05:12:38.587Z,15.70
2023-04-10T05:15:24.338Z,14.15
2023-04-10T05:18:09.549Z,14.23
2023-04-10T05:20:54.903Z,13.40
2023-04-10T05:23:40.405Z,16.40
2023-04-10T05:26:25.671Z,16.33
2023-04-10T05:29:11.017Z,16.30
2023-04-10T05:31:56.395Z,16.27
2023-04-10T05:34:41.600Z,16.35
2023-04-10T05:37:26.953Z,15.02
2023-04-10T05:40:12.223Z,16.15
2023-04-10T05:42:57.765Z,16.38
2023-04-10T05:45:46.166Z,17.02
2023-04-10T05:48:31.561Z,13.27
2023-04-10T05:51:17.042Z,17.40
2023-04-10T05:54:02.167Z,24.73
2023-04-10T05:56:47.523Z,25.50
2023-04-10T05:59:32.757Z,24.77
2023-04-10T06:02:19.359Z,23.35
2023-04-10T06:05:05.338Z,25.38
2023-04-10T06:07:51.713Z,22.88
2023-04-10T06:10:36.994Z,21.65
2023-04-10T06:13:22.533Z,21.27
2023-04-10T06:16:08.551Z,19.70
2023-04-10T06:18:54.467Z,20.63
2023-04-10T06:21:40.152Z,23.73
2023-04-10T06:24:25.462Z,25.20
2023-04-10T06:27:10.662Z,25.63
2023-04-10T06:29:56.320Z,27.00
2023-04-10T06:32:41.835Z,28.05
2023-04-10T06:35:27.453Z,24.35
2023-04-10T06:38:12.742Z,24.92
2023-04-10T06:40:58.308Z,25.10
2023-04-10T06:43:43.792Z,25.23
2023-04-10T06:46:29.070Z,25.30
2023-04-10T06:49:14.354Z,26.30
2023-04-10T06:51:59.447Z,25.67
2023-04-10T06:54:44.675Z,25.33
2023-04-10T06:57:29.867Z,26.02
2023-04-10T07:00:15.690Z,25.98
2023-04-10T07:03:00.946Z,25.15
2023-04-10T07:05:46.522Z,27.08
2023-04-10T07:08:31.529Z,28.50
2023-04-10T07:11:17.212Z,28.85
2023-04-10T07:14:02.193Z,28.65
2023-04-10T07:16:48.190Z,26.52
2023-04-10T07:19:33.726Z,25.45
2023-04-10T07:22:18.832Z,26.17
2023-04-10T07:25:04.419Z,26.15
2023-04-10T07:27:49.409Z,25.52
2023-04-10T07:30:34.658Z,25.38
2023-04-10T07:33:20.283Z,29.55
2023-04-10T07:36:07.059Z,37.53
2023-04-10T07:38:52.859Z,28.98
2023-04-10T07:41:38.541Z,27.25
2023-04-10T07:44:23.715Z,24.77
2023-04-10T07:47:09.091Z,18.23
2023-04-10T07:49:54.340Z,28.20
2023-04-10T07:52:39.719Z,29.40
2023-04-10T07:55:24.975Z,19.80
2023-04-10T07:58:10.956Z,18.75
2023-04-10T08:00:56.379Z,19.15
2023-04-10T08:03:47.612Z,18.92
2023-04-10T08:06:33.408Z,18.05
2023-04-10T08:09:18.439Z,20.85
2023-04-10T08:12:03.860Z,20.63
2023-04-10T08:14:49.529Z,19.67
2023-04-10T08:17:34.962Z,21.60
2023-04-10T08:20:20.389Z,22.40
2023-04-10T08:23:17.018Z,20.25
2023-04-10T08:26:05.846Z,19.92
2023-04-10T08:28:53.110Z,21.02
2023-04-10T08:31:38.736Z,19.15
2023-04-10T08:34:24.470Z,18.25
2023-04-10T08:37:12.253Z,19.65
2023-04-10T08:39:58.788Z,20.63
2023-04-10T08:42:44.019Z,18.90
2023-04-10T08:45:29.026Z,20.00
2023-04-10T08:48:16.352Z,18.90
2023-04-10T08:51:04.376Z,18.55
2023-04-10T08:53:51.969Z,19.63
2023-04-10T08:56:40.330Z,19.45
2023-04-10T08:59:25.651Z,19.70
2023-04-10T09:02:11.116Z,20.60
2023-04-10T09:05:00.614Z,19.33
2023-04-10T09:07:45.847Z,19.80
2023-04-10T09:10:31.692Z,18.58
2023-04-10T09:13:16.641Z,18.13
2023-04-10T09:16:02.103Z,16.02
2023-04-10T09:18:50.782Z,18.38
2023-04-10T09:21:36.050Z,18.35
2023-04-10T09:24:21.469Z,18.33
2023-04-10T09:27:07.620Z,19.10
2023-04-10T09:29:52.872Z,18.10
2023-04-10T09:32:41.448Z,20.40
2023-04-10T09:35:37.012Z,18.27
2023-04-10T09:38:22.402Z,18.48
2023-04-10T09:41:08.591Z,17.35
2023-04-10T09:44:08.033Z,16.70
2023-04-10T09:46:54.258Z,17.95
2023-04-10T09:50:06.552Z,18.52
2023-04-10T09:52:57.930Z,18.40
2023-04-10T09:55:43.807Z,17.48
2023-04-10T09:58:29.469Z,16.52
2023-04-10T10:01:15.081Z,17.13
2023-04-10T10:04:04.884Z,18.08
2023-04-10T10:06:50.545Z,18.70
2023-04-10T10:09:37.084Z,18.08
2023-04-10T10:12:27.283Z,22.73
2023-04-10T10:15:35.508Z,20.80
2023-04-10T10:18:44.095Z,19.67
2023-04-10T10:21:30.739Z,19.63
2023-04-10T10:24:17.258Z,18.00
2023-04-10T10:27:04.221Z,17.20
2023-04-10T10:29:50.550Z,20.73
2023-04-10T10:32:36.619Z,20.45
2023-04-10T10:35:25.462Z,19.23
2023-04-10T10:38:12.789Z,21.60
2023-04-10T10:41:28.716Z,20.48
2023-04-10T10:44:52.686Z,20.35
2023-04-10T10:47:50.870Z,20.27
2023-04-10T10:50:59.260Z,19.88
2023-04-10T10:53:45.341Z,20.58
2023-04-10T10:56:34.668Z,20.83
2023-04-10T10:59:48.938Z,20.98
2023-04-10T11:02:34.471Z,21.15
2023-04-10T11:05:55.295Z,22.08
2023-04-10T11:08:44.356Z,22.02
2023-04-10T11:11:29.774Z,22.13
2023-04-10T11:14:18.036Z,22.40
2023-04-10T11:17:03.253Z,20.45
2023-04-10T11:20:00.583Z,26.45
2023-04-10T11:23:11.908Z,20.90
2023-04-10T11:25:57.517Z,20.73
2023-04-10T11:28:42.910Z,18.80
2023-04-10T11:31:28.764Z,21.92
2023-04-10T11:34:15.787Z,20.77
2023-04-10T11:37:03.014Z,20.35
2023-04-10T11:39:48.192Z,20.77
2023-04-10T11:42:33.558Z,22.48
2023-04-10T11:45:28.700Z,22.20
2023-04-10T11:48:17.054Z,21.80
2023-04-10T11:51:10.521Z,21.23
2023-04-10T11:54:13.885Z,25.50
2023-04-10T11:57:02.898Z,22.63
2023-04-10T11:59:51.421Z,21.25
2023-04-10T12:02:51.700Z,20.95
2023-04-10T12:05:55.436Z,21.38
2023-04-10T12:08:49.490Z,19.25
2023-04-10T12:11:35.108Z,20.17
2023-04-10T12:14:24.150Z,18.83
2023-04-10T12:17:11.127Z,21.85
2023-04-10T12:19:57.634Z,19.95
2023-04-10T12:22:44.254Z,19.15
2023-04-10T12:25:29.468Z,18.25
2023-04-10T12:28:19.081Z,18.95
2023-04-10T12:31:04.929Z,19.92
2023-04-10T12:33:53.670Z,20.30
2023-04-10T12:36:38.790Z,19.17
2023-04-10T12:39:24.973Z,21.27
2023-04-10T12:42:19.448Z,18.98
2023-04-10T12:45:05.599Z,19.05
2023-04-10T12:47:54.164Z,20.80
2023-04-10T12:50:49.872Z,20.33
2023-04-10T12:53:44.479Z,21.02
2023-04-10T12:56:41.067Z,20.08
2023-04-10T12:59:26.917Z,18.02
2023-04-10T13:02:12.237Z,18.52
2023-04-10T13:04:57.642Z,23.15
2023-04-10T13:07:43.281Z,21.23
2023-04-10T13:10:28.763Z,20.85
2023-04-10T13:13:14.312Z,20.13
2023-04-10T13:16:00.134Z,19.00
2023-04-10T13:18:45.252Z,18.85
2023-04-10T13:21:30.521Z,18.20
2023-04-10T13:24:16.759Z,20.20
2023-04-10T13:27:02.356Z,18.95
2023-04-10T13:29:47.460Z,18.42
2023-04-10T13:32:32.582Z,16.85
2023-04-10T13:35:17.918Z,10.77
2023-04-10T13:38:04.077Z,8.07
2023-04-10T13:40:49.562Z,6.75
2023-04-10T13:43:34.764Z,6.65
2023-04-10T13:46:20.215Z,8.77
2023-04-10T13:49:06.796Z,9.20
2023-04-10T13:51:52.043Z,7.78
2023-04-10T13:54:37.412Z,6.35
2023-04-10T13:57:22.649Z,6.60
2023-04-10T14:00:08.657Z,6.70
2023-04-10T14:02:53.788Z,6.35
2023-04-10T14:05:39.641Z,6.95
2023-04-10T14:08:24.676Z,5.88
2023-04-10T14:11:09.888Z,9.65
2023-04-10T14:13:55.470Z,6.07
2023-04-10T14:16:40.651Z,9.00
2023-04-10T14:19:25.934Z,7.60
2023-04-10T14:22:11.320Z,5.63
2023-04-10T14:25:09.398Z,5.63
2023-04-10T14:27:57.628Z,6.80
2023-04-10T14:30:43.738Z,7.45
2023-04-10T14:33:29.063Z,6.55
2023-04-10T14:36:14.388Z,7.07
2023-04-10T14:38:59.750Z,7.10
2023-04-10T14:41:45.251Z,7.25
2023-04-10T14:44:30.828Z,8.50
2023-04-10T14:47:15.865Z,4.65
2023-04-10T14:50:00.938Z,6.00
2023-04-10T14:52:46.575Z,4.95
2023-04-10T14:55:32.003Z,4.90
2023-04-10T14:58:17.269Z,4.85
2023-04-10T15:01:02.565Z,6.80
2023-04-10T15:03:48.712Z,5.93
2023-04-10T15:06:34.378Z,7.47
2023-04-10T15:09:21.479Z,8.70
2023-04-10T15:12:07.470Z,5.75
2023-04-10T15:14:52.553Z,7.45
2023-04-10T15:17:38.106Z,7.90
2023-04-10T15:20:23.429Z,6.90
2023-04-10T15:23:09.140Z,6.43
2023-04-10T15:25:55.114Z,6.22
2023-04-10T15:28:41.490Z,6.32
2023-04-10T15:31:26.950Z,6.88
2023-04-10T15:34:13.332Z,7.78
2023-04-10T15:36:58.615Z,6.28
2023-04-10T15:39:43.915Z,5.93
2023-04-10T15:42:29.518Z,6.80
2023-04-10T15:45:14.818Z,7.20
2023-04-10T15:48:01.349Z,12.55
2023-04-10T15:50:46.524Z,15.15
2023-04-10T15:53:31.910Z,10.38
2023-04-10T15:56:17.163Z,7.65
2023-04-10T15:59:05.261Z,7.50
2023-04-10T16:01:50.651Z,7.53
2023-04-10T16:04:35.994Z,12.57
2023-04-10T16:07:21.491Z,11.68
2023-04-10T16:10:09.185Z,9.82
2023-04-10T16:12:56.487Z,10.18
2023-04-10T16:15:41.822Z,11.63
2023-04-10T16:18:27.441Z,13.98
2023-04-10T16:21:14.323Z,12.82
2023-04-10T16:24:00.933Z,10.10
2023-04-10T16:26:46.382Z,10.77
2023-04-10T16:29:31.625Z,9.13
2023-04-10T16:32:19.412Z,11.38
2023-04-10T16:35:04.916Z,19.73
2023-04-10T16:37:50.370Z,19.27
2023-04-10T16:40:35.366Z,14.30
2023-04-10T16:43:21.297Z,10.48
2023-04-10T16:46:07.922Z,11.75
2023-04-10T16:48:53.604Z,10.88
2023-04-10T16:51:39.143Z,21.77
2023-04-10T16:54:24.063Z,33.30
2023-04-10T16:57:09.456Z,30.75
2023-04-10T16:59:59.006Z,13.70
2023-04-10T17:02:44.203Z,10.75
2023-04-10T17:05:34.857Z,10.00
2023-04-10T17:08:19.849Z,8.88
2023-04-10T17:11:05.333Z,9.13
2023-04-10T17:13:50.641Z,9.85
2023-04-10T17:16:35.830Z,9.27
2023-04-10T17:19:21.223Z,8.18
2023-04-10T17:22:15.446Z,8.15
2023-04-10T17:25:00.963Z,10.48
2023-04-10T17:27:46.421Z,6.82
2023-04-10T17:30:31.663Z,7.30
2023-04-10T17:33:16.934Z,6.80
2023-04-10T17:36:02.454Z,9.23
2023-04-10T17:38:47.963Z,10.13
2023-04-10T17:41:33.120Z,10.43
2023-04-10T17:44:19.589Z,11.43
2023-04-10T17:47:05.188Z,10.48
2023-04-10T17:49:50.299Z,7.82
2023-04-10T17:52:35.548Z,8.60
2023-04-10T17:55:21.398Z,8.23
2023-04-10T17:58:07.244Z,8.20
2023-04-10T18:00:52.750Z,7.38
2023-04-10T18:03:38.625Z,6.57
2023-04-10T18:06:24.566Z,12.05
2023-04-10T18:09:09.671Z,6.88
2023-04-10T18:11:55.013Z,6.60
2023-04-10T18:14:42.539Z,11.98
2023-04-10T18:17:27.611Z,8.80
2023-04-10T18:20:12.814Z,6.00
2023-04-10T18:22:58.006Z,6.20
2023-04-10T18:25:52.109Z,5.45
2023-04-10T18:28:38.744Z,6.93
2023-04-10T18:31:23.906Z,6.38
2023-04-10T18:34:09.075Z,7.20
2023-04-10T18:36:55.617Z,6.90
2023-04-10T18:39:40.680Z,6.90
2023-04-10T18:42:27.721Z,6.70
2023-04-10T18:45:13.181Z,6.72
2023-04-10T18:47:58.614Z,7.72
2023-04-10T18:50:44.272Z,12.65
2023-04-10T18:53:29.492Z,14.30
2023-04-10T18:56:14.616Z,7.85
2023-04-10T18:58:59.947Z,6.63
2023-04-10T19:01:45.001Z,8.10
2023-04-10T19:04:30.358Z,8.32
2023-04-10T19:07:15.854Z,7.95
2023-04-10T19:10:01.335Z,8.68
2023-04-10T19:12:47.284Z,8.68
2023-04-10T19:15:32.390Z,10.23
2023-04-10T19:18:17.917Z,8.18
2023-04-10T19:21:04.231Z,8.05
2023-04-10T19:23:49.589Z,7.40
2023-04-10T19:26:34.999Z,7.55
2023-04-10T19:29:20.205Z,6.72
2023-04-10T19:32:05.653Z,8.57
2023-04-10T19:34:51.473Z,6.93
2023-04-10T19:37:36.574Z,6.78
2023-04-10T19:40:22.172Z,5.63
2023-04-10T19:43:07.196Z,6.03
2023-04-10T19:45:53.414Z,4.80
2023-04-10T19:48:38.589Z,7.13
2023-04-10T19:51:24.074Z,10.98
2023-04-10T19:54:09.292Z,14.68
2023-04-10T19:56:54.556Z,20.83
2023-04-10T19:59:39.836Z,18.35
2023-04-10T20:02:25.304Z,11.75
2023-04-10T20:05:10.799Z,8.13
2023-04-10T20:07:56.452Z,7.03
2023-04-10T20:10:41.490Z,6.57
2023-04-10T20:13:27.166Z,7.57
2023-04-10T20:16:12.685Z,7.97
2023-04-10T20:18:57.987Z,8.02
2023-04-10T20:21:43.242Z,8.48
2023-04-10T20:24:29.500Z,6.45
2023-04-10T20:27:15.565Z,6.30
2023-04-10T20:30:00.634Z,7.00
2023-04-10T20:32:47.056Z,6.60
2023-04-10T20:35:32.867Z,6.47
2023-04-10T20:38:18.303Z,6.53
2023-04-10T20:41:03.437Z,6.68
2023-04-10T20:43:48.691Z,4.88
2023-04-10T20:46:34.194Z,5.80
2023-04-10T20:49:19.432Z,5.72
2023-04-10T20:52:06.363Z,5.88
2023-04-10T20:54:51.690Z,5.25
2023-04-10T20:57:36.925Z,4.65
2023-04-10T21:00:22.402Z,4.07
2023-04-10T21:03:08.148Z,4.75
2023-04-10T21:05:54.049Z,5.10
2023-04-10T21:08:39.622Z,4.85
2023-04-10T21:11:27.257Z,4.55
2023-04-10T21:14:13.627Z,4.75
2023-04-10T21:16:58.806Z,4.88
2023-04-10T21:19:44.043Z,4.30
2023-04-10T21:22:29.579Z,4.93
2023-04-10T21:25:15.256Z,4.53
2023-04-10T21:28:00.715Z,4.10
2023-04-10T21:30:46.158Z,4.80
2023-04-10T21:33:32.665Z,4.45
2023-04-10T21:36:18.370Z,4.40
2023-04-10T21:39:03.712Z,5.15
2023-04-10T21:41:48.952Z,5.28
2023-04-10T21:44:34.310Z,4.60
2023-04-10T21:47:19.574Z,3.75
2023-04-10T21:50:05.538Z,3.75
2023-04-10T21:52:50.792Z,3.55
2023-04-10T21:55:36.034Z,3.88
2023-04-10T21:58:21.440Z,3.78
2023-04-10T22:01:08.090Z,4.40
2023-04-10T22:03:54.283Z,4.28
2023-04-10T22:06:39.416Z,4.28
2023-04-10T22:09:24.899Z,4.70
2023-04-10T22:12:10.368Z,3.95
2023-04-10T22:14:55.753Z,4.47
2023-04-10T22:17:41.151Z,4.10
2023-04-10T22:20:26.372Z,4.72
2023-04-10T22:23:11.718Z,3.63
2023-04-10T22:26:00.938Z,3.92
2023-04-10T22:28:46.305Z,3.78
2023-04-10T22:31:31.533Z,3.95
2023-04-10T22:34:16.753Z,3.80
2023-04-10T22:37:02.484Z,4.35
2023-04-10T22:39:47.559Z,4.10
2023-04-10T22:42:32.839Z,4.18
2023-04-10T22:45:18.331Z,4.45
2023-04-10T22:48:03.810Z,4.53
2023-04-10T22:50:49.454Z,4.15
2023-04-10T22:53:34.877Z,4.00
2023-04-10T22:56:26.142Z,4.53
2023-04-10T22:59:11.192Z,4.13
2023-04-10T23:01:56.557Z,4.30
2023-04-10T23:04:41.775Z,4.18
2023-04-10T23:07:27.952Z,4.78
2023-04-10T23:10:13.188Z,4.60
2023-04-10T23:12:58.710Z,4.82
2023-04-10T23:15:51.967Z,4.07
2023-04-10T23:18:37.657Z,5.50
2023-04-10T23:21:22.981Z,5.38
2023-04-10T23:24:08.256Z,5.65
2023-04-10T23:26:53.334Z,4.85
2023-04-10T23:29:38.558Z,4.50
2023-04-10T23:32:23.936Z,4.45
2023-04-10T23:35:09.439Z,5.72
2023-04-10T23:37:54.879Z,5.63
2023-04-10T23:40:39.846Z,4.90
2023-04-10T23:43:25.828Z,5.25
2023-04-10T23:46:10.925Z,5.30
2023-04-10T23:48:56.775Z,6.25
2023-04-10T23:51:42.047Z,5.18
2023-04-10T23:54:27.374Z,5.00
2023-04-10T23:57:12.815Z,6.13
2023-04-10T23:59:58.077Z,5.60
